METAR de aeropuertos de Murcia y cercanos

 

LEMI - Murcia/Corvera
Actualización: 29/06/2022 21:00
Despejado
Despejado
 Viento del SSE
Viento: SSE 11 km/h
Temperatura: 26°C
Rocío: 15°C
Humedad: 51%
Barómetro: 1012 hPa
Resumen: Despejado
Visibilidad: greater than 10 km
2022/06/29 19:00 LEMI 291900Z 16006KT CAVOK 26/15 Q1012
LERI - Murcia/Alcantarilla
Actualización: 29/06/2022 20:00
Despejado
Despejado
 Viento del SSE
Viento: SSE 22 km/h
Temperatura: 29°C
Heat Index: 29°C
Rocío: 16°C
Humedad: 45%
Barómetro: 1011 hPa
Resumen: Despejado
Visibilidad: greater than 10 km
2022/06/29 18:00 LERI 291800Z 15012KT 110V170 CAVOK 29/16 Q1011 NOSIG
LELC - Murcia/San Javier
Actualización: 29/06/2022 21:00
Despejado
Despejado
 Viento del ESE
Viento: ESE 15 km/h
Temperatura: 25°C
Rocío: 21°C
Humedad: 79%
Barómetro: 1011 hPa
Resumen: Despejado
Visibilidad: greater than 10 km
2022/06/29 19:00 LELC 291900Z 12008KT 080V150 CAVOK 25/21 Q1011 NOSIG
 
LEAL - Alicante
Actualización: 29/06/2022 21:00
Despejado
Despejado
 Viento del ESE
Viento: ESE 9 km/h
Temperatura: 25°C
Rocío: 20°C
Humedad: 74%
Barómetro: 1011 hPa
Resumen: Despejado
Visibilidad: greater than 10 km
2022/06/29 19:00 LEAL 291900Z 12005KT 080V170 CAVOK 25/20 Q1011 NOSIG
LEAB - Albacete
Actualización: 29/06/2022 21:00
Despejado
Despejado
 Viento del SSE
Viento: SSE 20 km/h
Temperatura: 28°C
Rocío: 12°C
Humedad: 37%
Barómetro: 1012 hPa
Resumen: Despejado
Visibilidad: greater than 10 km
2022/06/29 19:00 LEAB 291900Z 16011KT 130V200 CAVOK 28/12 Q1012 NOSIG
LEAM - Almería
Actualización: 29/06/2022 21:00
Despejado
Despejado
 Viento del varies
Viento: varies 4 km/h
Temperatura: 22°C
Rocío: 19°C
Humedad: 83%
Barómetro: 1011 hPa
Resumen: Despejado
Visibilidad: greater than 10 km
2022/06/29 19:00 LEAM 291900Z VRB02KT CAVOK 22/19 Q1011

La estación de MeteoMurcia.com, publica sus datos en los siguientes proyectos:

Weather Underground PWS IMURCIAP2 Meteoclimatic www.awekas.at

W3Counter
Web Analytics